Time;durP1;ratioP1;P1;durP2;ratioP2;P2;SDS_P1;SDS_P2;PMS_P1;PMS_P2;Temp;Humidity;BMP_temperature;BMP_pressure;BME280_temperature;BME280_humidity;BME280_pressure;Samples;Min_cycle;Max_cycle;Signal;HPM_P1;HPM_P2
2022/04/18 00:01:10;;;;;;;8.60;4.90;;;6.10;99.90;;;;;;5035409;28;20271;-68
2022/04/18 00:03:35;;;;;;;6.80;4.17;;;6.00;99.90;;;;;;5035538;28;20462;-68
2022/04/18 00:06:02;;;;;;;4.47;3.77;;;6.00;99.90;;;;;;5035451;28;20211;-68
2022/04/18 00:08:28;;;;;;;5.70;4.80;;;5.90;99.90;;;;;;5034820;28;20436;-67
2022/04/18 00:10:53;;;;;;;8.10;4.40;;;5.90;99.90;;;;;;5034375;28;20859;-67
2022/04/18 00:13:19;;;;;;;4.60;4.03;;;5.80;99.90;;;;;;5034970;28;20532;-67
2022/04/18 00:15:44;;;;;;;5.03;4.33;;;5.80;99.90;;;;;;5034718;28;20167;-67
2022/04/18 00:18:10;;;;;;;7.90;4.67;;;5.80;99.90;;;;;;5034504;28;20194;-67
2022/04/18 00:20:35;;;;;;;5.10;4.60;;;5.80;99.90;;;;;;5034924;28;20590;-67
2022/04/18 00:23:01;;;;;;;3.93;3.60;;;5.70;99.90;;;;;;5034864;28;20207;-67
2022/04/18 00:25:26;;;;;;;4.43;3.30;;;5.80;99.90;;;;;;5033199;28;20214;-67
2022/04/18 00:27:51;;;;;;;4.57;4.10;;;5.60;99.90;;;;;;5034542;28;20262;-68
2022/04/18 00:30:22;;;;;;;4.60;4.20;;;5.60;99.90;;;;;;5035039;28;20171;-69
2022/04/18 00:32:48;;;;;;;5.97;4.20;;;5.50;99.90;;;;;;5034669;28;20178;-68
2022/04/18 00:35:13;;;;;;;5.90;4.30;;;5.50;99.90;;;;;;5034735;28;20410;-67
2022/04/18 00:37:40;;;;;;;5.73;4.30;;;5.40;99.90;;;;;;5034440;28;20249;-67
2022/04/18 00:40:07;;;;;;;4.13;3.67;;;5.30;99.90;;;;;;5034635;28;20190;-67
2022/04/18 00:42:33;;;;;;;6.00;4.33;;;5.30;99.90;;;;;;5034288;28;20418;-68
2022/04/18 00:44:59;;;;;;;6.80;4.33;;;5.20;99.90;;;;;;5034214;28;20825;-68
2022/04/18 00:47:24;;;;;;;5.10;3.97;;;5.10;99.90;;;;;;5033829;28;20563;-68
2022/04/18 00:49:50;;;;;;;6.43;3.77;;;5.10;99.90;;;;;;5049451;28;20179;-68
2022/04/18 00:52:16;;;;;;;6.47;4.50;;;5.10;99.90;;;;;;5053638;28;20183;-68
2022/04/18 00:54:42;;;;;;;9.77;4.87;;;5.00;99.90;;;;;;5053554;28;20195;-68
2022/04/18 00:57:09;;;;;;;8.70;4.40;;;5.00;99.90;;;;;;5036071;28;20919;-68
2022/04/18 00:59:34;;;;;;;5.27;4.57;;;5.00;99.90;;;;;;5016450;28;20415;-68
2022/04/18 01:02:00;;;;;;;4.77;4.37;;;5.00;99.90;;;;;;5013736;28;20456;-68
2022/04/18 01:04:26;;;;;;;6.23;4.50;;;5.10;99.90;;;;;;5014207;28;20744;-67
2022/04/18 01:06:51;;;;;;;5.57;3.63;;;5.00;99.90;;;;;;5022031;28;20458;-68
2022/04/18 01:09:18;;;;;;;8.60;5.67;;;4.90;99.90;;;;;;5031254;28;20172;-69
2022/04/18 01:11:43;;;;;;;5.77;5.20;;;4.90;99.90;;;;;;5032880;28;20172;-68
2022/04/18 01:14:09;;;;;;;7.87;4.70;;;4.90;99.90;;;;;;5033571;28;20622;-68
2022/04/18 01:16:35;;;;;;;6.37;4.97;;;4.80;99.90;;;;;;5033352;28;20664;-68
2022/04/18 01:19:01;;;;;;;6.90;5.30;;;4.80;99.90;;;;;;5033501;28;20399;-68
2022/04/18 01:21:26;;;;;;;6.77;5.60;;;4.80;99.90;;;;;;5033253;28;20187;-68
2022/04/18 01:23:54;;;;;;;6.77;4.10;;;4.80;99.90;;;;;;5033085;28;20186;-68
2022/04/18 01:29:03;;;;;;;5.07;4.63;;;4.90;99.90;;;;;;5033340;28;20772;-68
2022/04/18 01:31:31;;;;;;;4.80;4.23;;;4.80;99.90;;;;;;5033082;28;20411;-68
2022/04/18 01:33:57;;;;;;;5.37;4.80;;;4.70;99.90;;;;;;5033125;28;20188;-68
2022/04/18 01:36:25;;;;;;;6.80;5.40;;;4.60;99.90;;;;;;5033033;28;20420;-68
2022/04/18 01:38:50;;;;;;;6.80;5.30;;;4.60;99.90;;;;;;5033198;28;20406;-68
2022/04/18 01:41:16;;;;;;;11.70;6.20;;;4.60;99.90;;;;;;5033209;28;20468;-68
2022/04/18 01:43:42;;;;;;;5.20;4.50;;;4.60;99.90;;;;;;5033016;28;20310;-70
2022/04/18 01:46:07;;;;;;;9.00;5.20;;;4.60;99.90;;;;;;5033197;28;20442;-68
2022/04/18 01:48:33;;;;;;;7.97;5.20;;;4.50;99.90;;;;;;5033319;28;20164;-69
2022/04/18 01:50:58;;;;;;;8.60;5.40;;;4.50;99.90;;;;;;5033120;28;20198;-68
2022/04/18 01:53:24;;;;;;;5.00;4.43;;;4.40;99.90;;;;;;5032689;28;20497;-69
2022/04/18 01:55:49;;;;;;;8.13;5.00;;;4.50;99.90;;;;;;5033259;28;20167;-69
2022/04/18 01:58:15;;;;;;;5.30;4.27;;;4.50;99.90;;;;;;5033065;28;20176;-69
2022/04/18 02:00:40;;;;;;;8.10;4.80;;;4.50;99.90;;;;;;5032824;28;20275;-67
2022/04/18 02:03:05;;;;;;;5.83;4.20;;;4.50;99.90;;;;;;5032408;28;20191;-67
2022/04/18 02:05:31;;;;;;;6.83;4.27;;;4.40;99.90;;;;;;5032866;28;20247;-67
2022/04/18 02:07:57;;;;;;;5.07;4.40;;;4.40;99.90;;;;;;5032729;28;20634;-67
2022/04/18 02:10:22;;;;;;;4.37;3.70;;;4.40;99.90;;;;;;5032540;28;20178;-68
2022/04/18 02:12:48;;;;;;;5.77;4.10;;;4.40;99.90;;;;;;5032861;28;20242;-68
2022/04/18 02:15:15;;;;;;;5.53;4.83;;;4.30;99.90;;;;;;5032470;28;20630;-68
2022/04/18 02:17:40;;;;;;;4.90;3.43;;;4.30;99.90;;;;;;5032444;28;20182;-68
2022/04/18 02:20:06;;;;;;;11.30;5.17;;;4.30;99.90;;;;;;5032296;28;20783;-68
2022/04/18 02:22:33;;;;;;;7.03;5.90;;;4.40;99.90;;;;;;5032052;28;20198;-68
2022/04/18 02:24:59;;;;;;;4.90;3.60;;;4.30;99.90;;;;;;5032019;28;20423;-68
2022/04/18 02:27:24;;;;;;;9.90;4.17;;;4.30;99.90;;;;;;5032191;28;20904;-68
2022/04/18 02:29:50;;;;;;;4.60;4.17;;;4.30;99.90;;;;;;5032186;28;20205;-68
2022/04/18 02:35:00;;;;;;;9.50;3.73;;;4.20;99.90;;;;;;5031802;28;20210;-68
2022/04/18 02:37:25;;;;;;;5.13;3.70;;;4.20;99.90;;;;;;5031898;28;20753;-67
2022/04/18 02:39:51;;;;;;;7.27;5.20;;;4.20;99.90;;;;;;5031889;28;20167;-68
2022/04/18 02:42:18;;;;;;;6.00;4.97;;;4.10;99.90;;;;;;5032248;28;20263;-68
2022/04/18 02:44:45;;;;;;;4.87;4.47;;;4.10;99.90;;;;;;5031562;28;20203;-68
2022/04/18 02:47:11;;;;;;;4.50;4.10;;;4.10;99.90;;;;;;5031631;28;20458;-68
2022/04/18 02:49:37;;;;;;;4.67;4.27;;;4.10;99.90;;;;;;5031759;28;21240;-68
2022/04/18 02:52:03;;;;;;;5.63;3.63;;;4.00;99.90;;;;;;5031619;28;20657;-69
2022/04/18 02:54:29;;;;;;;4.80;3.10;;;4.00;99.90;;;;;;5031638;28;20215;-70
2022/04/18 02:56:54;;;;;;;4.53;4.10;;;3.90;99.90;;;;;;5031892;28;20410;-68
2022/04/18 02:59:19;;;;;;;6.70;4.37;;;3.90;99.90;;;;;;5031867;28;20250;-68
2022/04/18 03:01:45;;;;;;;8.20;5.23;;;3.90;99.90;;;;;;5031611;28;20175;-68
2022/04/18 03:04:11;;;;;;;5.33;3.27;;;3.90;99.90;;;;;;5031411;28;20195;-68
2022/04/18 03:06:36;;;;;;;8.33;3.50;;;3.80;99.90;;;;;;5031339;28;20249;-68
2022/04/18 03:09:02;;;;;;;7.87;4.40;;;3.80;99.90;;;;;;5031516;28;20444;-68
2022/04/18 03:11:27;;;;;;;4.97;3.93;;;3.70;99.90;;;;;;5031300;28;20233;-68
2022/04/18 03:13:55;;;;;;;3.20;3.00;;;3.70;99.90;;;;;;5031592;28;20192;-69
2022/04/18 03:16:20;;;;;;;7.60;4.20;;;3.70;99.90;;;;;;5033277;28;20660;-69
2022/04/18 03:18:46;;;;;;;9.00;3.97;;;3.70;99.90;;;;;;5033691;28;20423;-69
2022/04/18 03:21:13;;;;;;;7.87;4.80;;;3.60;99.90;;;;;;5032542;28;20218;-68
2022/04/18 03:23:38;;;;;;;4.87;4.27;;;3.70;99.90;;;;;;5031624;28;20218;-68
2022/04/18 03:26:04;;;;;;;7.10;4.90;;;3.60;99.90;;;;;;5030290;28;20477;-68
2022/04/18 03:28:32;;;;;;;3.57;2.83;;;3.60;99.90;;;;;;5031412;28;20459;-68
2022/04/18 03:30:57;;;;;;;7.93;5.03;;;3.60;99.90;;;;;;5031778;28;20171;-68
2022/04/18 03:33:23;;;;;;;4.53;4.17;;;3.50;99.90;;;;;;5031851;28;20798;-68
2022/04/18 03:41:17;;;;;;;3.80;3.50;;;3.50;99.90;;;;;;5030959;28;20417;-69
2022/04/18 03:43:42;;;;;;;7.57;4.53;;;3.50;99.90;;;;;;5052668;23;20485;-71
2022/04/18 03:46:08;;;;;;;8.30;5.13;;;3.50;99.90;;;;;;5031838;28;20223;-68
2022/04/18 03:48:33;;;;;;;4.83;3.50;;;3.40;99.90;;;;;;5032922;28;20794;-69
2022/04/18 03:50:59;;;;;;;4.63;4.20;;;3.50;99.90;;;;;;5039038;28;20166;-70
2022/04/18 03:53:25;;;;;;;6.30;3.97;;;3.50;99.90;;;;;;5038674;28;20709;-69
2022/04/18 03:55:50;;;;;;;7.50;5.17;;;3.40;99.90;;;;;;5039804;28;20457;-71
2022/04/18 03:58:16;;;;;;;4.77;3.50;;;3.30;99.90;;;;;;5041158;28;20180;-71
2022/04/18 04:00:45;;;;;;;4.87;3.57;;;3.40;99.90;;;;;;5038313;28;20167;-70
2022/04/18 04:03:11;;;;;;;10.27;5.10;;;3.40;99.90;;;;;;5031705;28;20637;-70
2022/04/18 04:05:37;;;;;;;5.63;4.43;;;3.30;99.90;;;;;;5031624;28;20954;-70
2022/04/18 04:08:03;;;;;;;5.57;4.93;;;3.30;99.90;;;;;;5031551;28;20417;-70
2022/04/18 04:10:29;;;;;;;7.33;3.90;;;3.30;99.90;;;;;;5030282;28;20406;-70
2022/04/18 04:12:55;;;;;;;8.93;5.17;;;3.30;99.90;;;;;;5031538;28;20406;-71
2022/04/18 04:15:21;;;;;;;6.23;4.00;;;3.40;99.90;;;;;;5031562;28;20222;-71
2022/04/18 04:17:46;;;;;;;3.93;3.63;;;3.40;99.90;;;;;;5030338;28;21029;-70
2022/04/18 04:20:12;;;;;;;5.73;5.13;;;3.30;99.90;;;;;;5030243;28;20183;-70
2022/04/18 04:22:43;;;;;;;4.53;4.13;;;3.40;99.90;;;;;;5031729;28;20201;-70
2022/04/18 04:25:09;;;;;;;8.07;4.40;;;3.40;99.90;;;;;;5031360;28;20207;-70
2022/04/18 04:27:35;;;;;;;4.00;3.60;;;3.40;99.90;;;;;;5031630;28;20818;-70
2022/04/18 04:30:00;;;;;;;7.43;4.93;;;3.40;99.90;;;;;;5031774;28;20176;-71
2022/04/18 04:32:26;;;;;;;4.93;3.63;;;3.40;99.90;;;;;;5031662;28;20175;-71
2022/04/18 04:34:54;;;;;;;6.07;4.20;;;3.40;99.90;;;;;;5031393;28;20199;-71
2022/04/18 04:37:20;;;;;;;5.57;4.93;;;3.50;99.90;;;;;;5031316;28;20176;-70
2022/04/18 04:39:45;;;;;;;10.73;3.43;;;3.50;99.90;;;;;;5031241;28;20408;-70
2022/04/18 04:42:11;;;;;;;6.93;5.63;;;3.60;99.90;;;;;;5029867;28;20187;-70
2022/04/18 04:44:37;;;;;;;6.47;4.57;;;3.60;99.90;;;;;;5032667;28;20218;-70
2022/04/18 04:47:04;;;;;;;8.40;5.20;;;3.60;99.90;;;;;;5033636;28;20557;-70
2022/04/18 04:49:30;;;;;;;7.10;5.17;;;3.60;99.90;;;;;;5035037;28;20544;-70
2022/04/18 04:51:55;;;;;;;5.20;4.30;;;3.60;99.90;;;;;;5033619;28;20414;-70
2022/04/18 04:54:21;;;;;;;4.07;3.73;;;3.70;99.90;;;;;;5033481;28;20206;-69
2022/04/18 04:56:46;;;;;;;7.47;6.23;;;3.70;99.90;;;;;;5033500;28;20175;-69
2022/04/18 04:59:12;;;;;;;11.23;4.37;;;3.70;99.90;;;;;;5034853;28;20172;-70
2022/04/18 05:01:37;;;;;;;7.63;5.33;;;3.80;99.90;;;;;;5033516;28;20203;-69
2022/04/18 05:04:03;;;;;;;10.43;4.03;;;3.80;99.90;;;;;;5034721;28;20230;-69
2022/04/18 05:06:29;;;;;;;8.10;5.00;;;3.90;99.90;;;;;;5034305;28;20708;-70
2022/04/18 05:08:55;;;;;;;5.60;3.10;;;3.90;99.90;;;;;;5034595;28;20657;-70
2022/04/18 05:11:21;;;;;;;10.43;6.60;;;4.00;99.90;;;;;;5034946;28;20199;-71
2022/04/18 05:13:47;;;;;;;4.30;3.43;;;4.10;99.90;;;;;;5034841;28;20473;-71
2022/04/18 05:16:12;;;;;;;8.40;4.70;;;4.10;99.90;;;;;;5034633;28;20179;-71
2022/04/18 05:18:38;;;;;;;8.67;6.60;;;4.20;99.90;;;;;;5035086;28;20402;-70
2022/04/18 05:21:03;;;;;;;7.40;4.53;;;4.30;99.90;;;;;;5034848;28;20176;-71
2022/04/18 05:23:32;;;;;;;8.30;5.53;;;4.40;99.90;;;;;;5034478;28;20223;-71
2022/04/18 05:25:57;;;;;;;7.30;5.67;;;4.50;99.90;;;;;;5034392;28;20298;-71
2022/04/18 05:28:23;;;;;;;6.50;4.70;;;4.60;99.90;;;;;;5034462;28;20495;-71
2022/04/18 05:30:48;;;;;;;6.10;5.17;;;4.70;99.90;;;;;;5016696;28;20195;-71
2022/04/18 05:33:14;;;;;;;6.90;5.20;;;4.80;99.90;;;;;;5034239;28;20171;-70
2022/04/18 05:35:40;;;;;;;10.07;6.77;;;4.80;99.90;;;;;;5034058;28;20251;-71
2022/04/18 05:38:05;;;;;;;6.70;5.40;;;5.00;99.90;;;;;;5032580;28;20175;-70
2022/04/18 05:40:31;;;;;;;11.33;5.10;;;5.10;99.90;;;;;;5033970;28;20233;-70
2022/04/18 05:42:58;;;;;;;8.13;4.90;;;5.30;99.90;;;;;;5032512;28;20182;-71
2022/04/18 05:45:23;;;;;;;9.07;4.83;;;5.40;99.90;;;;;;5032450;28;20211;-70
2022/04/18 05:47:49;;;;;;;7.43;5.00;;;5.90;99.90;;;;;;5033877;28;20910;-70
2022/04/18 05:50:15;;;;;;;7.83;4.37;;;6.60;99.90;;;;;;5032751;28;20168;-70
2022/04/18 05:52:40;;;;;;;7.20;4.00;;;7.10;99.90;;;;;;5032464;28;20434;-70
2022/04/18 05:55:07;;;;;;;7.00;4.23;;;7.90;99.90;;;;;;5033554;28;20357;-70
2022/04/18 05:57:33;;;;;;;7.53;4.90;;;8.40;99.90;;;;;;5031788;28;20194;-70
2022/04/18 05:59:58;;;;;;;8.07;5.20;;;8.30;99.90;;;;;;5033532;28;20947;-71
2022/04/18 06:02:24;;;;;;;7.23;5.17;;;8.80;99.90;;;;;;5032159;28;20175;-71
2022/04/18 06:04:49;;;;;;;10.07;4.57;;;9.50;99.90;;;;;;5033290;28;20651;-71
2022/04/18 06:07:15;;;;;;;7.67;5.50;;;10.00;99.90;;;;;;5033058;28;20198;-70
2022/04/18 06:09:41;;;;;;;9.57;5.63;;;10.30;99.90;;;;;;5033214;28;20168;-70
2022/04/18 06:12:07;;;;;;;7.70;4.30;;;9.80;99.90;;;;;;5031985;28;20657;-70
2022/04/18 06:14:33;;;;;;;6.27;4.53;;;10.60;99.90;;;;;;5031847;28;20742;-70
2022/04/18 06:16:58;;;;;;;6.43;4.47;;;11.50;99.90;;;;;;5032061;28;20454;-70
2022/04/18 06:19:23;;;;;;;11.67;5.00;;;11.40;99.90;;;;;;5033250;28;20171;-71
2022/04/18 06:21:49;;;;;;;8.80;5.77;;;11.80;99.90;;;;;;5033054;28;20176;-70
2022/04/18 06:24:15;;;;;;;6.37;4.97;;;10.90;99.90;;;;;;5033131;28;20554;-70
2022/04/18 06:26:40;;;;;;;6.03;4.80;;;10.60;99.90;;;;;;5017570;28;20245;-70
2022/04/18 06:29:06;;;;;;;11.03;5.60;;;11.00;99.90;;;;;;5013556;28;20189;-70
2022/04/18 06:31:31;;;;;;;6.97;4.87;;;11.20;99.90;;;;;;5011979;28;20725;-70
2022/04/18 06:33:58;;;;;;;6.53;5.73;;;11.90;99.90;;;;;;5026816;28;20193;-70
2022/04/18 06:36:23;;;;;;;6.70;5.33;;;12.30;99.90;;;;;;5032662;28;20168;-71
2022/04/18 06:38:49;;;;;;;5.77;4.47;;;12.60;99.90;;;;;;5015052;28;20422;-71
2022/04/18 06:41:14;;;;;;;7.63;4.40;;;12.30;99.90;;;;;;5031537;28;20172;-72
2022/04/18 06:43:40;;;;;;;6.30;4.50;;;12.70;99.90;;;;;;5032647;28;20208;-72
2022/04/18 06:46:05;;;;;;;9.10;5.80;;;12.90;99.90;;;;;;5031384;28;20658;-70
2022/04/18 06:48:31;;;;;;;7.30;4.40;;;13.70;99.90;;;;;;5032713;28;20165;-70
2022/04/18 06:50:57;;;;;;;6.60;5.73;;;14.40;98.30;;;;;;5032805;28;20170;-70
2022/04/18 06:53:22;;;;;;;7.00;5.03;;;14.20;97.90;;;;;;5032362;28;20331;-70
2022/04/18 06:58:32;;;;;;;7.77;4.50;;;13.50;98.20;;;;;;5032498;28;20196;-71
2022/04/18 07:00:58;;;;;;;5.83;5.33;;;13.80;97.10;;;;;;5031068;28;20837;-70
2022/04/18 07:03:23;;;;;;;5.60;4.10;;;14.70;96.00;;;;;;5032221;28;20187;-71
2022/04/18 07:05:49;;;;;;;4.47;3.67;;;14.80;95.60;;;;;;5031110;28;20269;-71
2022/04/18 07:08:15;;;;;;;4.70;3.90;;;15.30;95.10;;;;;;5029929;28;20741;-71
2022/04/18 07:10:40;;;;;;;6.90;4.50;;;14.80;94.70;;;;;;5031074;28;20170;-70
2022/04/18 07:13:06;;;;;;;4.77;3.43;;;15.00;94.00;;;;;;5032412;28;20191;-71
2022/04/18 07:15:32;;;;;;;6.73;4.47;;;15.50;93.60;;;;;;5030910;28;20599;-71
2022/04/18 07:17:58;;;;;;;6.60;4.23;;;16.00;92.20;;;;;;5030928;28;20184;-71
2022/04/18 07:20:24;;;;;;;5.23;3.77;;;15.50;93.60;;;;;;5032027;28;20413;-71
2022/04/18 07:22:49;;;;;;;4.70;3.80;;;15.90;91.60;;;;;;5032172;28;20168;-69
2022/04/18 07:25:15;;;;;;;4.33;3.00;;;14.60;91.80;;;;;;5031904;28;20189;-71
2022/04/18 07:27:41;;;;;;;4.70;4.20;;;14.30;93.10;;;;;;5030962;28;20923;-71
2022/04/18 07:30:08;;;;;;;6.20;3.90;;;15.40;92.20;;;;;;5032033;28;20163;-71
2022/04/18 07:32:41;;;;;;;4.07;3.30;;;15.90;90.70;;;;;;5031856;28;20175;-71
2022/04/18 07:35:08;;;;;;;5.60;3.63;;;15.90;90.70;;;;;;5031905;28;20546;-71
2022/04/18 07:37:34;;;;;;;4.03;2.87;;;15.50;90.80;;;;;;5032191;28;20891;-72
2022/04/18 07:40:00;;;;;;;4.93;3.90;;;15.40;92.10;;;;;;5030204;28;20483;-72
2022/04/18 07:42:25;;;;;;;6.53;3.90;;;15.70;90.20;;;;;;5032577;28;20161;-71
2022/04/18 07:44:51;;;;;;;5.07;4.03;;;15.60;90.40;;;;;;5015256;28;20200;-72
2022/04/18 07:47:16;;;;;;;3.93;3.53;;;16.50;87.60;;;;;;5030704;28;20210;-72
2022/04/18 07:49:42;;;;;;;4.53;3.60;;;16.90;86.30;;;;;;5032000;28;20168;-72
2022/04/18 07:52:08;;;;;;;4.00;3.33;;;15.90;88.90;;;;;;5032202;28;20201;-71
2022/04/18 07:54:34;;;;;;;4.73;4.10;;;15.80;89.60;;;;;;5031833;28;20410;-71
2022/04/18 07:57:00;;;;;;;4.20;3.80;;;15.90;89.10;;;;;;5031798;28;20853;-72
2022/04/18 07:59:25;;;;;;;6.53;3.63;;;16.40;86.60;;;;;;5032042;28;20254;-71
2022/04/18 08:01:51;;;;;;;4.57;3.20;;;16.70;85.70;;;;;;5032209;28;20251;-71
2022/04/18 08:04:16;;;;;;;7.60;3.40;;;16.30;85.60;;;;;;5031770;28;20534;-70
2022/04/18 08:06:42;;;;;;;3.40;2.93;;;15.60;86.00;;;;;;5031734;28;20213;-71
2022/04/18 08:09:08;;;;;;;4.23;3.40;;;16.30;85.10;;;;;;5031575;28;20203;-72
2022/04/18 08:11:33;;;;;;;3.20;2.63;;;17.70;80.90;;;;;;5030317;28;20552;-71
2022/04/18 08:13:59;;;;;;;3.70;3.40;;;17.40;82.00;;;;;;5031607;28;20195;-71
2022/04/18 08:16:24;;;;;;;4.60;3.37;;;16.80;79.60;;;;;;5030206;28;20179;-71
2022/04/18 08:18:51;;;;;;;4.03;3.63;;;15.60;84.40;;;;;;5031721;28;20179;-71
2022/04/18 08:21:17;;;;;;;3.23;2.93;;;16.00;85.40;;;;;;5035619;28;20181;-71
2022/04/18 08:23:47;;;;;;;2.37;2.17;;;16.20;87.00;;;;;;5033954;28;20439;-71
2022/04/18 08:26:13;;;;;;;2.20;2.00;;;16.70;81.20;;;;;;5035084;28;20542;-72
2022/04/18 08:28:39;;;;;;;2.43;2.13;;;16.80;77.70;;;;;;5033935;28;20436;-71
2022/04/18 08:31:06;;;;;;;2.53;1.83;;;16.30;77.90;;;;;;5033741;28;20245;-72
2022/04/18 08:33:31;;;;;;;2.33;2.10;;;16.30;78.20;;;;;;5033952;28;20434;-72
2022/04/18 08:35:58;;;;;;;2.17;1.90;;;17.50;75.00;;;;;;5034941;28;20420;-72
2022/04/18 08:38:24;;;;;;;2.73;2.00;;;17.20;72.90;;;;;;5034956;28;20414;-72
2022/04/18 08:40:50;;;;;;;2.10;1.90;;;16.80;72.50;;;;;;5034823;28;20421;-70
2022/04/18 08:43:17;;;;;;;2.80;1.80;;;17.30;73.50;;;;;;5034631;28;20416;-71
2022/04/18 08:45:43;;;;;;;2.20;2.00;;;17.20;72.00;;;;;;5033361;28;20471;-72
2022/04/18 08:53:40;;;;;;;2.10;1.90;;;17.20;69.20;;;;;;5034869;28;20954;-70
2022/04/18 08:56:06;;;;;;;2.33;1.93;;;17.60;68.50;;;;;;5034800;28;20402;-71
2022/04/18 08:58:32;;;;;;;2.20;1.80;;;17.80;67.70;;;;;;5033549;28;20423;-71
2022/04/18 09:00:59;;;;;;;1.97;1.80;;;18.00;66.30;;;;;;5034882;28;20232;-71
2022/04/18 09:03:25;;;;;;;2.30;1.90;;;17.40;68.60;;;;;;5034628;28;20425;-71
2022/04/18 09:06:07;;;;;;;1.93;1.70;;;17.60;67.70;;;;;;5034420;28;21017;-71
2022/04/18 09:08:34;;;;;;;2.40;2.20;;;18.40;65.00;;;;;;5034524;28;20441;-72
2022/04/18 09:10:59;;;;;;;1.60;1.23;;;18.50;64.00;;;;;;5033470;28;20415;-72
2022/04/18 09:13:25;;;;;;;1.93;1.33;;;18.30;63.10;;;;;;5034186;28;20518;-72
2022/04/18 09:15:51;;;;;;;2.33;1.70;;;17.70;62.50;;;;;;5034237;28;20264;-72
2022/04/18 09:18:19;;;;;;;2.10;1.90;;;17.80;62.70;;;;;;5034380;28;20214;-72
2022/04/18 09:20:50;;;;;;;1.43;1.33;;;17.60;63.60;;;;;;5034600;28;20743;-72
2022/04/18 09:23:18;;;;;;;2.00;1.60;;;16.90;63.90;;;;;;5034473;28;20416;-71
2022/04/18 09:25:44;;;;;;;2.47;2.27;;;17.50;65.90;;;;;;5033932;28;20460;-71
2022/04/18 09:28:11;;;;;;;3.57;2.20;;;17.20;63.80;;;;;;5034096;28;20415;-71
2022/04/18 09:30:37;;;;;;;1.97;1.77;;;17.30;64.50;;;;;;5032961;28;20209;-71
2022/04/18 09:33:07;;;;;;;3.57;2.07;;;17.30;64.20;;;;;;5033914;28;20430;-71
2022/04/18 09:35:34;;;;;;;2.10;1.90;;;17.40;64.70;;;;;;5033941;28;20770;-72
2022/04/18 09:38:06;;;;;;;2.90;1.67;;;17.70;64.70;;;;;;5033816;28;20484;-72
2022/04/18 09:40:32;;;;;;;2.30;2.07;;;17.60;64.00;;;;;;5034097;28;20533;-72
2022/04/18 09:42:59;;;;;;;3.37;2.23;;;17.40;65.10;;;;;;5033691;28;20551;-72
2022/04/18 09:45:27;;;;;;;1.90;1.60;;;17.40;65.10;;;;;;5033965;28;20593;-72
2022/04/18 09:47:54;;;;;;;2.20;1.60;;;17.60;64.70;;;;;;5054228;22;20487;-68
2022/04/18 09:53:05;;;;;;;2.27;1.40;;;17.20;60.70;;;;;;5033464;28;20463;-67
2022/04/18 09:55:31;;;;;;;1.30;1.13;;;16.60;62.00;;;;;;5033141;28;20435;-67
2022/04/18 09:58:03;;;;;;;1.27;0.90;;;15.90;63.30;;;;;;5033491;28;20293;-68
2022/04/18 10:00:29;;;;;;;2.00;1.20;;;15.60;61.10;;;;;;5033148;28;20179;-68
2022/04/18 10:02:58;;;;;;;1.37;1.20;;;15.60;60.70;;;;;;5032919;28;20503;-68
2022/04/18 10:05:27;;;;;;;1.73;1.30;;;15.20;62.60;;;;;;5033142;28;20196;-68
2022/04/18 10:07:54;;;;;;;2.17;1.50;;;15.40;63.20;;;;;;5033126;28;20429;-68
2022/04/18 10:10:20;;;;;;;2.40;1.60;;;15.10;65.10;;;;;;5032966;28;20414;-67
2022/04/18 10:12:46;;;;;;;1.93;1.50;;;15.30;64.80;;;;;;5032423;28;20425;-67
2022/04/18 10:15:11;;;;;;;1.20;1.10;;;15.00;65.00;;;;;;5032738;28;20415;-66
2022/04/18 10:17:41;;;;;;;1.70;1.60;;;14.90;63.90;;;;;;5032503;28;20733;-67
2022/04/18 10:20:24;;;;;;;3.97;2.23;;;15.00;66.80;;;;;;5032724;28;20171;-67
2022/04/18 10:23:27;;;;;;;2.90;1.60;;;14.50;68.40;;;;;;5032511;28;20501;-67
2022/04/18 10:26:28;;;;;;;4.83;1.40;;;14.40;69.30;;;;;;5032240;28;20547;-67
2022/04/18 10:28:56;;;;;;;1.37;1.20;;;14.40;69.70;;;;;;5032683;28;20437;-68
2022/04/18 10:31:28;;;;;;;1.50;1.17;;;14.10;68.40;;;;;;5032550;28;21009;-67
2022/04/18 10:33:56;;;;;;;2.00;1.80;;;14.10;70.00;;;;;;5030996;28;20433;-67
2022/04/18 10:36:31;;;;;;;2.30;1.90;;;14.10;70.40;;;;;;5025757;28;20427;-67
2022/04/18 10:38:57;;;;;;;1.30;1.20;;;14.30;69.20;;;;;;5022598;28;20452;-68
2022/04/18 10:41:39;;;;;;;2.27;1.30;;;14.40;68.70;;;;;;5032230;28;20402;-67
2022/04/18 10:44:12;;;;;;;1.20;1.00;;;14.30;69.90;;;;;;5032160;28;20459;-67
2022/04/18 10:46:42;;;;;;;2.93;1.20;;;14.40;66.60;;;;;;5031919;28;20469;-67
2022/04/18 10:49:15;;;;;;;1.17;1.00;;;14.30;67.00;;;;;;5032570;28;20414;-67
2022/04/18 10:51:43;;;;;;;3.40;2.30;;;14.30;68.70;;;;;;5032197;28;20399;-67
2022/04/18 10:54:15;;;;;;;1.60;1.43;;;14.20;69.70;;;;;;5031966;28;20453;-68
2022/04/18 10:56:47;;;;;;;1.93;1.30;;;14.20;70.10;;;;;;5029650;28;20427;-67
2022/04/18 10:59:17;;;;;;;2.13;1.60;;;14.30;70.00;;;;;;5031918;28;20898;-68
2022/04/18 11:01:42;;;;;;;3.43;2.13;;;14.10;70.30;;;;;;5032190;28;20418;-68
2022/04/18 11:04:12;;;;;;;1.53;1.40;;;14.10;70.20;;;;;;5030574;28;20421;-67
2022/04/18 11:06:38;;;;;;;2.97;1.87;;;14.20;70.60;;;;;;5032312;28;20207;-67
2022/04/18 11:09:23;;;;;;;2.73;1.80;;;14.30;70.80;;;;;;5032172;28;20884;-68
2022/04/18 11:12:01;;;;;;;1.23;1.10;;;14.30;70.90;;;;;;5032262;28;20492;-69
2022/04/18 11:14:51;;;;;;;1.83;1.33;;;14.30;69.90;;;;;;5031928;28;20464;-68
2022/04/18 11:17:36;;;;;;;2.87;1.93;;;14.40;71.10;;;;;;5031706;28;20445;-67
2022/04/18 11:20:36;;;;;;;1.23;1.13;;;14.30;69.80;;;;;;5032308;28;20896;-67
2022/04/18 11:23:18;;;;;;;1.83;1.20;;;14.70;70.20;;;;;;5032203;28;20739;-67
2022/04/18 11:25:55;;;;;;;1.37;1.23;;;14.80;68.90;;;;;;5032060;28;20445;-68
2022/04/18 11:28:21;;;;;;;2.73;1.37;;;14.70;69.70;;;;;;5032030;28;20822;-68
2022/04/18 11:30:47;;;;;;;1.00;0.90;;;14.80;69.70;;;;;;5033158;28;20413;-67
2022/04/18 11:33:12;;;;;;;1.70;1.37;;;14.70;69.80;;;;;;5033178;28;20399;-67
2022/04/18 11:35:38;;;;;;;1.37;1.27;;;14.80;68.80;;;;;;5033048;28;20559;-68
2022/04/18 11:38:08;;;;;;;1.40;1.20;;;14.60;68.90;;;;;;5033117;28;20653;-68
2022/04/18 11:40:39;;;;;;;1.00;1.00;;;14.70;70.00;;;;;;5031434;28;20176;-68
2022/04/18 11:43:18;;;;;;;1.60;1.43;;;14.80;69.70;;;;;;5031442;28;20425;-68
2022/04/18 11:45:44;;;;;;;1.73;1.30;;;15.10;69.30;;;;;;5031827;28;20499;-68
2022/04/18 11:48:13;;;;;;;2.37;1.53;;;15.10;69.20;;;;;;5031770;28;20811;-68
2022/04/18 11:50:42;;;;;;;1.63;1.43;;;14.90;69.60;;;;;;5031512;28;20172;-67
2022/04/18 11:53:09;;;;;;;1.67;1.57;;;14.90;70.40;;;;;;5031256;28;20402;-67
2022/04/18 11:55:42;;;;;;;2.03;1.77;;;15.00;70.70;;;;;;5037167;28;20414;-67
2022/04/18 11:58:09;;;;;;;1.50;1.40;;;14.80;70.10;;;;;;5038027;28;20426;-68
2022/04/18 12:08:48;;;;;;;1.23;1.13;;;15.20;70.40;;;;;;5037784;28;20451;-67
2022/04/18 12:11:14;;;;;;;1.60;1.33;;;15.10;70.10;;;;;;5037538;28;20432;-67
2022/04/18 12:13:42;;;;;;;2.17;1.37;;;15.20;70.00;;;;;;5034716;28;20402;-68
2022/04/18 12:16:08;;;;;;;1.80;1.60;;;15.10;69.20;;;;;;5017816;28;20776;-67
2022/04/18 12:18:33;;;;;;;1.53;1.43;;;15.00;69.10;;;;;;5029419;28;20405;-67
2022/04/18 12:20:59;;;;;;;1.70;1.30;;;14.80;70.00;;;;;;5037832;28;20186;-67
2022/04/18 12:23:26;;;;;;;1.40;1.20;;;15.10;70.00;;;;;;5037330;28;20241;-67
2022/04/18 12:25:53;;;;;;;1.63;1.00;;;15.00;69.70;;;;;;5037210;28;20195;-67
2022/04/18 12:28:20;;;;;;;1.00;0.80;;;15.10;68.60;;;;;;5037258;28;20421;-68
2022/04/18 12:30:46;;;;;;;1.20;1.10;;;15.20;67.10;;;;;;5037396;28;20459;-67
2022/04/18 12:33:23;;;;;;;1.10;1.00;;;15.20;66.40;;;;;;5037473;28;20414;-67
2022/04/18 12:35:51;;;;;;;1.20;1.10;;;15.30;66.60;;;;;;5037322;28;20394;-67
2022/04/18 12:38:18;;;;;;;2.63;1.50;;;15.10;66.90;;;;;;5037488;28;20487;-67
2022/04/18 12:40:45;;;;;;;1.43;1.33;;;15.10;66.50;;;;;;5037532;28;20406;-67
2022/04/18 12:43:16;;;;;;;2.30;1.20;;;15.00;66.70;;;;;;5037309;28;20406;-67
2022/04/18 12:45:56;;;;;;;1.30;1.20;;;15.20;66.90;;;;;;5037607;28;20457;-67
2022/04/18 12:48:29;;;;;;;1.60;1.50;;;15.20;66.50;;;;;;5037406;28;20441;-67
2022/04/18 12:50:56;;;;;;;2.80;1.50;;;15.30;66.10;;;;;;5035934;28;20920;-67
2022/04/18 12:53:46;;;;;;;1.50;1.10;;;15.30;65.40;;;;;;5037150;28;20414;-67
2022/04/18 12:56:13;;;;;;;1.10;0.90;;;15.50;64.30;;;;;;5036916;28;20947;-67
2022/04/18 12:58:40;;;;;;;1.67;1.00;;;15.60;64.00;;;;;;5037361;28;20411;-67
2022/04/18 13:01:07;;;;;;;1.70;1.03;;;15.70;63.90;;;;;;5037507;28;20414;-67
2022/04/18 13:03:45;;;;;;;1.80;1.47;;;15.50;64.00;;;;;;5036907;28;20436;-68
2022/04/18 13:06:11;;;;;;;1.83;1.10;;;15.60;64.10;;;;;;5034837;28;20449;-66
2022/04/18 13:08:40;;;;;;;0.83;0.80;;;15.60;62.60;;;;;;5034206;28;20403;-67
2022/04/18 13:11:06;;;;;;;1.50;0.70;;;15.50;61.90;;;;;;5033879;28;20488;-67
2022/04/18 13:13:32;;;;;;;0.83;0.70;;;15.70;60.90;;;;;;5034382;28;20477;-67
2022/04/18 13:16:24;;;;;;;1.70;1.00;;;15.80;61.40;;;;;;5033583;28;20422;-67
2022/04/18 13:19:01;;;;;;;0.90;0.90;;;15.90;61.00;;;;;;5033850;28;20398;-67
2022/04/18 13:21:28;;;;;;;1.37;1.07;;;15.90;60.60;;;;;;5033665;28;20428;-67